Acme, Canada
Current Conditions -  °F | °C
As of 3:00 PM on Wednesday 28 Jan 2015 (Local Time) from CYYC Reporting Station
Few Clouds Few Clouds  
Wind Chill: 35°   Ceiling: Unl
Heat Index: 41°   Visibility: 40mi
Dew Point: 23°   Wind: 9mph
Humidity: 49%   Direction: 100°E
Pressure: 30.25"   Gusts: NA
Location:  51.5°N, 113.5°W
Report Text: CYYC 282200Z 10008KT 060V190 40SM FEW050 FEW100 05/M05 A3025 RMK SC1AC1 SC TR AC TR SLP288
Loading
Personal Weather Stations






























Interactive Weather Map New forecast layout! Learn more

10-Day Weather Forecast

Advertisements
Track Severe Weather on mobile